createdAt,value
2018-10-12T00:03:42.836Z,99.900002
2018-10-12T00:08:43.208Z,99.900002
2018-10-12T00:13:45.442Z,99.900002
2018-10-12T00:18:47.762Z,99.900002
2018-10-12T00:23:50.090Z,99.900002
2018-10-12T00:28:52.342Z,99.900002
2018-10-12T00:33:54.634Z,99.900002
2018-10-12T00:38:56.841Z,99.900002
2018-10-12T00:43:59.342Z,99.900002
2018-10-12T00:49:02.782Z,99.900002
2018-10-12T00:54:03.821Z,99.900002
2018-10-12T00:59:06.195Z,99.900002
2018-10-12T01:04:08.479Z,99.900002
2018-10-12T01:09:10.859Z,99.900002
2018-10-12T01:14:13.019Z,99.900002
2018-10-12T01:19:15.388Z,99.900002
2018-10-12T01:24:17.558Z,99.900002
2018-10-12T01:29:19.888Z,99.900002
2018-10-12T01:34:22.238Z,99.900002
2018-10-12T01:39:24.505Z,99.900002
2018-10-12T01:44:26.684Z,99.900002
2018-10-12T01:49:29.086Z,99.900002
2018-10-12T01:54:31.457Z,99.900002
2018-10-12T01:59:33.656Z,99.900002
2018-10-12T02:09:38.361Z,99.900002
2018-10-12T02:14:40.553Z,99.900002
2018-10-12T02:19:42.813Z,99.900002
2018-10-12T02:24:45.079Z,99.900002
2018-10-12T02:29:47.425Z,99.900002
2018-10-12T02:34:49.658Z,99.900002
2018-10-12T02:39:52.087Z,99.900002
2018-10-12T02:44:55.283Z,99.900002
2018-10-12T02:49:56.547Z,99.900002
2018-10-12T02:54:59.009Z,99.900002
2018-10-12T03:00:01.227Z,99.900002
2018-10-12T03:05:03.472Z,99.900002
2018-10-12T03:10:05.735Z,99.900002
2018-10-12T03:15:09.184Z,99.900002
2018-10-12T03:20:10.442Z,99.900002
2018-10-12T03:25:12.757Z,99.900002
2018-10-12T03:30:14.926Z,99.900002
2018-10-12T03:35:17.259Z,99.900002
2018-10-12T03:40:19.710Z,99.900002
2018-10-12T03:45:21.841Z,99.900002
2018-10-12T03:50:24.155Z,99.900002
2018-10-12T03:55:26.416Z,99.900002
2018-10-12T04:00:28.730Z,99.900002
2018-10-12T04:05:31.011Z,99.900002
2018-10-12T04:10:33.247Z,99.900002
2018-10-12T04:15:35.539Z,99.900002
2018-10-12T04:20:37.883Z,99.900002
2018-10-12T04:25:40.128Z,99.900002
2018-10-12T04:30:42.520Z,99.900002
2018-10-12T04:35:44.849Z,99.900002
2018-10-12T04:40:47.012Z,99.900002
2018-10-12T04:45:49.365Z,99.900002
2018-10-12T04:50:52.981Z,99.900002
2018-10-12T04:55:54.078Z,99.900002
2018-10-12T05:00:58.675Z,99.900002
2018-10-12T05:05:58.529Z,99.900002
2018-10-12T05:11:00.933Z,99.900002
2018-10-12T05:16:03.150Z,99.900002
2018-10-12T05:21:05.375Z,99.900002
2018-10-12T05:26:07.774Z,99.900002
2018-10-12T05:31:10.157Z,99.900002
2018-10-12T05:36:12.435Z,99.900002
2018-10-12T05:41:14.677Z,99.900002
2018-10-12T05:46:16.951Z,99.900002
2018-10-12T05:51:19.208Z,99.900002
2018-10-12T05:56:21.497Z,99.900002
2018-10-12T06:01:23.875Z,99.900002
2018-10-12T06:06:26.079Z,99.900002
2018-10-12T06:11:28.430Z,99.900002
2018-10-12T06:16:30.798Z,99.900002
2018-10-12T06:21:32.993Z,99.900002
2018-10-12T06:26:35.382Z,99.900002
2018-10-12T06:31:38.514Z,99.900002
2018-10-12T06:36:41.042Z,99.900002
2018-10-12T06:41:42.286Z,99.900002
2018-10-12T06:46:44.673Z,99.900002
2018-10-12T06:51:46.760Z,99.900002
2018-10-12T06:56:49.042Z,99.900002
2018-10-12T07:01:51.272Z,99.900002
2018-10-12T07:06:53.588Z,99.900002
2018-10-12T07:11:55.987Z,99.900002
2018-10-12T07:17:00.075Z,99.900002
2018-10-12T07:22:00.465Z,99.900002
2018-10-12T07:27:02.686Z,99.900002
2018-10-12T07:32:05.094Z,99.900002
2018-10-12T07:37:07.505Z,99.900002
2018-10-12T07:42:09.677Z,99.900002
2018-10-12T07:47:12.097Z,99.900002
2018-10-12T07:52:14.292Z,99.900002
2018-10-12T07:57:16.554Z,99.900002
2018-10-12T08:02:18.871Z,99.900002
2018-10-12T08:07:21.229Z,99.900002
2018-10-12T08:12:23.664Z,99.900002
2018-10-12T08:17:25.726Z,99.900002
2018-10-12T08:22:28.018Z,99.900002
2018-10-12T08:27:30.285Z,99.900002
2018-10-12T08:32:32.714Z,99.900002
2018-10-12T08:37:34.920Z,99.300003
2018-10-12T08:42:40.084Z,99.199997
2018-10-12T08:47:39.639Z,99.900002
2018-10-12T08:52:41.991Z,98
2018-10-12T08:57:44.106Z,96.099998
2018-10-12T09:02:46.454Z,96.699997
2018-10-12T09:07:48.773Z,95.099998
2018-10-12T09:12:50.943Z,94.800003
2018-10-12T09:17:54.369Z,96.199997
2018-10-12T09:22:56.124Z,92
2018-10-12T09:27:57.863Z,92.800003
2018-10-12T09:33:00.228Z,93.099998
2018-10-12T09:38:02.544Z,89.5
2018-10-12T09:43:04.807Z,90
2018-10-12T09:48:09.397Z,89.300003
2018-10-12T09:53:09.420Z,89.300003
2018-10-12T09:58:11.664Z,88.199997
2018-10-12T10:03:13.940Z,88.599998
2018-10-12T10:08:16.311Z,87.199997
2018-10-12T10:13:18.530Z,85.400002
2018-10-12T10:18:21.012Z,83.800003
2018-10-12T10:23:23.171Z,84.099998
2018-10-12T10:28:25.386Z,83.900002
2018-10-12T10:33:27.726Z,82.5
2018-10-12T10:38:29.976Z,82.599998
2018-10-12T10:43:32.242Z,80.599998
2018-10-12T10:48:34.583Z,80.400002
2018-10-12T10:53:37.019Z,79.800003
2018-10-12T10:58:39.208Z,77
2018-10-12T11:03:41.510Z,73.300003
2018-10-12T11:08:43.776Z,71.5
2018-10-12T11:13:46.109Z,73.099998
2018-10-12T11:18:48.270Z,71.300003
2018-10-12T11:23:50.855Z,68.099998
2018-10-12T11:28:53.111Z,68.5
2018-10-12T11:33:55.268Z,69.699997
2018-10-12T11:38:57.504Z,64.400002
2018-10-12T11:43:59.926Z,67.5
2018-10-12T11:49:02.240Z,64.5
2018-10-12T11:54:04.382Z,68.900002
2018-10-12T11:59:06.788Z,67.5
2018-10-12T12:04:09.050Z,61
2018-10-12T12:09:11.332Z,57.700001
2018-10-12T12:14:13.567Z,58.700001
2018-10-12T12:19:15.884Z,55
2018-10-12T12:24:18.201Z,57.299999
2018-10-12T12:29:20.598Z,52.900002
2018-10-12T12:34:22.897Z,56.700001
2018-10-12T12:39:25.289Z,56
2018-10-12T12:44:27.397Z,54.900002
2018-10-12T12:49:29.885Z,56.799999
2018-10-12T12:54:31.945Z,56.5
2018-10-12T12:59:38.423Z,54.200001
2018-10-12T13:04:38.452Z,52.200001
2018-10-12T13:09:38.977Z,55.5
2018-10-12T13:14:41.083Z,50.799999
2018-10-12T13:19:43.523Z,49.5
2018-10-12T13:24:45.718Z,50.5
2018-10-12T13:29:47.987Z,53.5
2018-10-12T13:34:50.379Z,49.200001
2018-10-12T13:39:52.741Z,52
2018-10-12T13:44:54.945Z,53
2018-10-12T13:49:57.159Z,53.200001
2018-10-12T13:54:59.409Z,52
2018-10-12T14:00:01.822Z,51.5
2018-10-12T14:05:04.114Z,52.700001
2018-10-12T14:10:06.336Z,56
2018-10-12T14:15:09.768Z,55.799999
2018-10-12T14:20:10.931Z,57.299999
2018-10-12T14:25:13.241Z,58.700001
2018-10-12T14:30:15.462Z,60.099998
2018-10-12T14:35:19.297Z,61.099998
2018-10-12T14:40:20.063Z,62
2018-10-12T14:45:22.752Z,62.700001
2018-10-12T14:50:24.629Z,63.700001
2018-10-12T14:55:27.080Z,62.799999
2018-10-12T15:00:29.297Z,62.599998
2018-10-12T15:05:31.621Z,63.099998
2018-10-12T15:10:33.827Z,62.900002
2018-10-12T15:15:36.291Z,63.599998
2018-10-12T15:20:38.444Z,64
2018-10-12T15:25:40.865Z,64.099998
2018-10-12T15:30:43.082Z,64.099998
2018-10-12T15:35:45.376Z,64.400002
2018-10-12T15:40:47.681Z,65
2018-10-12T15:45:49.925Z,65.699997
2018-10-12T15:50:52.332Z,65.900002
2018-10-12T15:55:54.523Z,66.599998
2018-10-12T16:00:56.769Z,66.699997
2018-10-12T16:05:59.162Z,66.800003
2018-10-12T16:11:02.900Z,67.400002
2018-10-12T16:16:03.760Z,68.099998
2018-10-12T16:21:06.126Z,67.900002
2018-10-12T16:26:08.318Z,68.800003
2018-10-12T16:31:10.566Z,69.599998
2018-10-12T16:36:12.948Z,70.300003
2018-10-12T16:41:15.064Z,70.800003
2018-10-12T16:46:17.406Z,71.300003
2018-10-12T16:51:19.843Z,71.800003
2018-10-12T16:56:23.155Z,72.599998
2018-10-12T17:01:24.424Z,72.599998
2018-10-12T17:06:26.599Z,73
2018-10-12T17:11:28.958Z,72.699997
2018-10-12T17:16:31.363Z,72.800003
2018-10-12T17:21:33.508Z,73.199997
2018-10-12T17:26:35.826Z,73.599998
2018-10-12T17:31:38.129Z,74
2018-10-12T17:36:40.452Z,74
2018-10-12T17:41:42.910Z,74.400002
2018-10-12T17:46:46.152Z,74.800003
2018-10-12T17:51:47.303Z,75.199997
2018-10-12T17:56:49.594Z,75.599998
2018-10-12T18:01:51.887Z,76
2018-10-12T18:06:54.187Z,76.5
2018-10-12T18:11:56.404Z,77.099998
2018-10-12T18:16:58.718Z,77.900002
2018-10-12T18:22:01.017Z,78
2018-10-12T18:27:03.380Z,78.300003
2018-10-12T18:32:05.659Z,78.199997
2018-10-12T18:37:07.955Z,78.400002
2018-10-12T18:42:10.418Z,78.300003
2018-10-12T18:47:12.481Z,78.199997
2018-10-12T18:52:14.758Z,78.300003
2018-10-12T18:57:17.203Z,78.300003
2018-10-12T19:02:19.440Z,78.099998
2018-10-12T19:07:21.646Z,78.300003
2018-10-12T19:12:24.029Z,78
2018-10-12T19:17:26.317Z,78.199997
2018-10-12T19:22:28.525Z,77.900002
2018-10-12T19:27:32.705Z,77.900002
2018-10-12T19:32:33.188Z,78
2018-10-12T19:37:35.498Z,78.300003
2018-10-12T19:42:37.794Z,77.900002
2018-10-12T19:47:40.086Z,77.599998
2018-10-12T19:52:42.352Z,77.300003
2018-10-12T19:57:44.596Z,77.199997
2018-10-12T20:02:46.999Z,76.900002
2018-10-12T20:07:49.244Z,76.599998
2018-10-12T20:12:51.510Z,76.800003
2018-10-12T20:17:53.794Z,76.400002
2018-10-12T20:22:56.131Z,76.099998
2018-10-12T20:27:58.424Z,76.300003
2018-10-12T20:33:00.771Z,76.099998
2018-10-12T20:38:02.929Z,76.300003
2018-10-12T20:43:05.316Z,76.099998
2018-10-12T20:48:07.524Z,76.400002
2018-10-12T20:53:09.934Z,76.900002
2018-10-12T20:58:12.115Z,77.199997
2018-10-12T21:03:14.569Z,77.599998
2018-10-12T21:08:16.763Z,78
2018-10-12T21:13:19.172Z,78.199997
2018-10-12T21:18:21.316Z,78.400002
2018-10-12T21:23:23.645Z,79
2018-10-12T21:28:26.176Z,79.199997
2018-10-12T21:33:28.204Z,79.900002
2018-10-12T21:38:30.511Z,79.800003
2018-10-12T21:43:32.832Z,79.900002
2018-10-12T21:48:35.094Z,80.400002
2018-10-12T21:53:37.376Z,81.5
2018-10-12T21:58:39.700Z,81.699997
2018-10-12T22:03:41.925Z,81.5
2018-10-12T22:08:44.297Z,81.800003
2018-10-12T22:13:46.645Z,82.199997
2018-10-12T22:18:48.818Z,82.5
2018-10-12T22:23:51.247Z,82.800003
2018-10-12T22:28:53.447Z,82.599998
2018-10-12T22:33:55.704Z,83.300003
2018-10-12T22:38:58.045Z,83.900002
2018-10-12T22:44:00.433Z,84.599998
2018-10-12T22:49:02.643Z,84.900002
2018-10-12T22:54:04.895Z,84.900002
2018-10-12T22:59:07.342Z,85.199997
2018-10-12T23:04:09.536Z,85.400002
2018-10-12T23:09:13.646Z,85.900002
2018-10-12T23:14:14.166Z,87.5
2018-10-12T23:19:16.478Z,87.599998
2018-10-12T23:24:18.737Z,87.699997
2018-10-12T23:29:20.964Z,88.099998
2018-10-12T23:34:23.431Z,88
2018-10-12T23:39:25.708Z,87.900002
2018-10-12T23:44:27.917Z,87.599998
2018-10-12T23:49:30.143Z,88.099998
2018-10-12T23:54:32.605Z,87.300003
2018-10-12T23:59:34.831Z,87.300003
